Portage Des Sioux, Missouri
Current Conditions -  °F | °C
As of 9:36 PM on Monday 22 Dec 2014 (Local Time) from KSET Reporting Station
Light Rain Light Rain  
Wind Chill: 45°   Ceiling: 1900
Heat Index: 49°   Visibility: 8mi
Dew Point: 48°   Wind: 8mph
Humidity: 97%   Direction: 190°S
Pressure: 29.53"   Gusts: NA
Location:  38.92°N, 90.34°W
Report Text: KSET 230336Z AUTO 19007KT 8SM -RA SCT012 BKN019 OVC060 09/09 A2953 RMK AO2 P0006 T00940089
Loading
Personal Weather Stations






























Interactive Weather Map New forecast layout! Learn more

10-Day Weather Forecast

Advertisements
Track Severe Weather on mobile